Currently 49°F in Beaumont, California, USA
49°F
49°F / 40°F
4 mph SW
0.00"
Thursday, March 23, 2017 11:23 AM PDT

Beaumont, California Weather Summary
Last 36 Hours

Temperature Winds Hourly Humidity Dewpoint
Time Report Norm Report Norm Max Gusts Precip. Rpt. Norm Rpt. Norm Pressure
1Thu 11:23 AM  48.6°F  62°F  4 mph SW  6 mph  12 mph  0.00"  64%  48%  36°F  41°F  30.09"
2Thu 11:07 AM  48.6°F  61°F  4 mph S  6 mph  10 mph  ----  70%  49%  39°F  41°F  30.08"
Thu 11:00 AM  47.8°F  61°F  2 mph W  6 mph  12 mph  0.00"  74%  49%  40°F  41°F  30.08"
Thu 10:00 AM  45.7°F  59°F  3 mph SW  5 mph  12 mph  0.00"  85%  53%  41°F  41°F  30.04"
Thu 09:00 AM  41.7°F  56°F  3 mph SW  3 mph  12 mph  0.00"  96%  57%  41°F  41°F  30.02"
Thu 08:00 AM  40.3°F  53°F  3 mph W  2 mph  10 mph  0.00"  97%  60%  39°F  39°F  30.00"
3Thu 07:27 AM  39.7°F  51°F  3 mph NW  3 mph  8 mph  ----  97%  62%  39°F  38°F  30.00"
Thu 07:00 AM  39.9°F  50°F  2 mph SW  3 mph  7 mph  0.00"  97%  63%  39°F  38°F  29.98"
Thu 06:00 AM  40.3°F  50°F  2 mph SW  3 mph  7 mph  0.00"  96%  64%  39°F  38°F  29.96"
Thu 05:00 AM  40.3°F  50°F  3 mph SW  3 mph  8 mph  0.00"  96%  64%  39°F  38°F  29.95"
Thu 04:00 AM  40.6°F  51°F  3 mph SW  3 mph  9 mph  0.00"  96%  66%  40°F  39°F  29.95"
Thu 03:00 AM  41.7°F  51°F  3 mph SW  3 mph  10 mph  0.00"  96%  66%  41°F  39°F  29.94"
Thu 02:00 AM  42.4°F  51°F  2 mph S  2 mph  7 mph  0.00"  96%  67%  41°F  40°F  29.94"
Thu 01:00 AM  42.4°F  52°F  3 mph SW  2 mph  7 mph  0.00"  94%  67%  41°F  40°F  29.94"
Thu 12:00 AM  43.5°F  52°F  3 mph SW  3 mph  12 mph  0.00"  92%  67%  41°F  41°F  29.94"
Wed 11:00 PM  44.1°F  53°F  3 mph NW  3 mph  12 mph  0.00"  90%  67%  41°F  42°F  29.94"
Wed 10:00 PM  44.4°F  54°F  4 mph SW  3 mph  12 mph  0.00"  89%  65%  41°F  42°F  29.94"
Wed 09:00 PM  45.1°F  56°F  4 mph SW  3 mph  13 mph  0.00"  86%  61%  41°F  42°F  29.95"
Wed 08:00 PM  46.2°F  57°F  6 mph W  4 mph  20 mph  0.00"  83%  57%  41°F  42°F  29.92"
Wed 07:00 PM  48.4°F  60°F  3 mph W  3 mph  20 mph  0.00"  75%  51%  41°F  41°F  29.90"
Wed 06:00 PM  51.6°F  64°F  3 mph W  4 mph  13 mph  0.00"  75%  44%  44°F  41°F  29.88"
Wed 05:20 PM  54.9°F  65°F  5 mph SW  5 mph  9 mph  0.00"  63%  42%  42°F  40°F  29.87"
Wed 04:00 PM  53.2°F  67°F  2 mph SW  5 mph  12 mph  0.00"  69%  39%  43°F  40°F  29.90"
Wed 03:00 PM  52.9°F  67°F  2 mph NW  6 mph  14 mph  0.00"  71%  40%  43°F  40°F  29.92"
Wed 02:00 PM  52.2°F  66°F  6 mph SW  7 mph  13 mph  0.00"  80%  40%  46°F  40°F  29.94"
Wed 01:00 PM  52.3°F  65°F  3 mph W  7 mph  12 mph  0.00"  87%  42%  48°F  41°F  29.96"
Wed 12:00 PM  53.8°F  63°F  3 mph S  6 mph  13 mph  0.00"  82%  45%  48°F  41°F  29.98"
Wed 11:00 AM  50.7°F  61°F  5 mph SE  6 mph  7 mph  0.00"  87%  48%  47°F  41°F  29.97"
Wed 10:00 AM  49.8°F  59°F  calm  5 mph  6 mph  0.00"  97%  52%  49°F  41°F  29.98"
Wed 09:00 AM  49.3°F  56°F  2 mph S  3 mph  3 mph  0.00"  98%  56%  49°F  40°F  29.98"
Wed 08:00 AM  48.7°F  54°F  calm  2 mph  3 mph  0.01"  98%  59%  48°F  39°F  29.98"
Wed 07:00 AM  48.4°F  50°F  2 mph W  3 mph  5 mph  0.01"  98%  61%  48°F  37°F  29.97"
Wed 06:00 AM  48.2°F  50°F  1 mph W  3 mph  3 mph  0.00"  98%  62%  48°F  37°F  29.96"
Wed 05:00 AM  47.8°F  51°F  calm  3 mph  none  0.00"  97%  62%  47°F  38°F  29.95"
Wed 04:00 AM  48.0°F  51°F  calm  3 mph  3 mph  0.00"  97%  63%  47°F  38°F  29.96"
Wed 03:00 AM  48.0°F  51°F  1 mph S  2 mph  3 mph  0.02"  97%  64%  47°F  39°F  29.98"
Wed 02:00 AM  48.6°F  52°F  calm  3 mph  3 mph  0.03"  97%  64%  48°F  39°F  29.99"
Wed 01:00 AM  48.7°F  52°F  1 mph S  3 mph  5 mph  0.01"  96%  64%  48°F  40°F  30.01"
Wed 12:00 AM  49.6°F  53°F  2 mph SE  3 mph  3 mph  0.02"  96%  65%  49°F  41°F  30.01"

  1. Current weather data. No green row appears if the current weather data is also the high or low for the current day.
  2. High temperature for the current day.
  3. Low temperature for the current day.

The Beaumont, California weather pages are a service of WeatherCurrents. Cherry Valley is located in northern Riverside County, California, a community of the northern part of Beaumont, along the Interstate 10 highway, in the San Gorgonio pass area, between the communities of Calimesa, Banning.
Copyright ©Thu Mar 23 11:25:28 PDT 2017  WeatherCurrents. All rights reserved. - Submit questions and comments - Privacy Policy

This page automatically refreshes every 10 minutes.